Time;durP1;ratioP1;P1;durP2;ratioP2;P2;SDS_P1;SDS_P2;PMS_P1;PMS_P2;Temp;Humidity;BMP_temperature;BMP_pressure;BME280_temperature;BME280_humidity;BME280_pressure;Samples;Min_cycle;Max_cycle;Signal;HPM_P1;HPM_P2
2021/06/12 00:01:10;;;;;;;8.77;7.90;;;17.10;36.20;;;;;;5071805;28;20221;-71
2021/06/12 00:03:36;;;;;;;9.70;8.13;;;17.10;36.20;;;;;;5071647;28;20169;-71
2021/06/12 00:06:05;;;;;;;10.10;9.13;;;17.10;36.10;;;;;;5070557;28;20174;-70
2021/06/12 00:08:31;;;;;;;8.97;8.13;;;17.10;36.30;;;;;;5072007;28;20174;-71
2021/06/12 00:10:57;;;;;;;9.43;8.83;;;17.10;36.50;;;;;;5071284;28;20863;-71
2021/06/12 00:13:23;;;;;;;8.53;7.80;;;17.10;37.30;;;;;;5071472;28;20178;-72
2021/06/12 00:15:49;;;;;;;9.73;8.77;;;17.00;37.20;;;;;;5071152;28;20654;-71
2021/06/12 00:18:15;;;;;;;9.43;8.63;;;17.00;37.20;;;;;;5071203;28;20408;-71
2021/06/12 00:20:40;;;;;;;10.03;9.20;;;16.90;37.10;;;;;;5070766;28;20431;-72
2021/06/12 00:23:07;;;;;;;9.37;8.47;;;16.90;37.10;;;;;;5071125;28;20228;-71
2021/06/12 00:25:34;;;;;;;8.97;8.20;;;16.90;37.40;;;;;;5070328;28;20223;-71
2021/06/12 00:28:02;;;;;;;9.70;8.70;;;16.90;37.10;;;;;;5071079;28;20449;-70
2021/06/12 00:30:29;;;;;;;10.40;9.47;;;16.80;37.00;;;;;;5070682;28;20443;-70
2021/06/12 00:32:55;;;;;;;8.97;8.27;;;16.90;38.30;;;;;;5071133;28;20783;-71
2021/06/12 00:35:21;;;;;;;9.50;8.60;;;16.90;38.80;;;;;;5070810;28;20483;-71
2021/06/12 00:37:47;;;;;;;8.17;7.57;;;16.70;39.10;;;;;;5070917;28;20169;-70
2021/06/12 00:40:15;;;;;;;8.53;7.83;;;16.70;39.90;;;;;;5070785;28;20431;-70
2021/06/12 00:42:41;;;;;;;9.90;9.00;;;16.60;40.60;;;;;;5070955;28;20210;-70
2021/06/12 00:45:10;;;;;;;10.27;9.40;;;16.60;39.90;;;;;;5071004;28;20408;-71
2021/06/12 00:47:36;;;;;;;10.53;9.10;;;16.50;40.10;;;;;;5070896;28;20173;-70
2021/06/12 00:50:03;;;;;;;10.73;9.57;;;16.50;40.50;;;;;;5070727;28;20444;-72
2021/06/12 00:52:28;;;;;;;9.10;8.40;;;16.50;40.50;;;;;;5070826;28;20434;-72
2021/06/12 00:54:54;;;;;;;8.73;8.03;;;16.50;40.60;;;;;;5070681;28;20814;-72
2021/06/12 00:57:21;;;;;;;8.57;7.77;;;16.40;40.90;;;;;;5070882;28;20170;-71
2021/06/12 00:59:47;;;;;;;9.50;8.80;;;16.30;40.80;;;;;;5070536;28;20215;-71
2021/06/12 01:02:12;;;;;;;14.10;9.37;;;16.30;41.20;;;;;;5070988;28;20412;-72
2021/06/12 01:04:38;;;;;;;10.00;8.87;;;16.30;41.60;;;;;;5070949;28;20181;-71
2021/06/12 01:07:04;;;;;;;11.13;10.13;;;16.30;41.80;;;;;;5071043;28;20255;-71
2021/06/12 01:09:29;;;;;;;14.73;13.37;;;16.20;41.70;;;;;;5070601;28;20674;-71
2021/06/12 01:12:22;;;;;;;18.23;16.33;;;16.10;42.40;;;;;;5070761;28;20219;-71
2021/06/12 01:14:54;;;;;;;13.17;12.07;;;16.10;42.70;;;;;;5070504;28;20184;-70
2021/06/12 01:17:33;;;;;;;16.83;15.27;;;16.00;43.30;;;;;;5070888;28;20476;-71
2021/06/12 01:20:23;;;;;;;13.47;12.20;;;15.90;43.40;;;;;;5070378;28;20431;-71
2021/06/12 01:22:58;;;;;;;13.93;12.53;;;15.90;44.10;;;;;;5070664;28;20413;-71
2021/06/12 01:25:26;;;;;;;13.13;11.93;;;15.80;44.00;;;;;;5070589;28;20510;-70
2021/06/12 01:28:36;;;;;;;10.17;9.10;;;15.70;44.60;;;;;;5070745;28;20416;-71
2021/06/12 01:31:04;;;;;;;9.97;9.17;;;15.70;44.10;;;;;;5059383;28;20951;-71
2021/06/12 01:33:30;;;;;;;8.50;7.47;;;15.70;43.30;;;;;;5069205;28;20419;-71
2021/06/12 01:36:06;;;;;;;12.30;8.73;;;15.80;42.90;;;;;;5070480;28;20616;-71
2021/06/12 01:38:35;;;;;;;10.37;9.47;;;15.80;42.60;;;;;;5073096;28;20463;-71
2021/06/12 01:41:06;;;;;;;12.50;9.50;;;15.90;42.10;;;;;;5072695;28;20877;-71
2021/06/12 01:43:33;;;;;;;10.07;9.20;;;15.90;41.80;;;;;;5074409;28;20423;-71
2021/06/12 01:45:59;;;;;;;10.43;9.50;;;15.90;42.70;;;;;;5074213;28;20423;-72
2021/06/12 01:48:25;;;;;;;11.13;10.20;;;15.90;42.80;;;;;;5074142;28;20411;-71
2021/06/12 01:50:51;;;;;;;10.00;9.20;;;15.80;42.90;;;;;;5073880;28;20523;-71
2021/06/12 01:53:20;;;;;;;10.90;10.00;;;15.80;43.40;;;;;;5074154;28;20834;-71
2021/06/12 01:55:48;;;;;;;11.27;10.23;;;15.80;43.60;;;;;;5072672;28;20477;-72
2021/06/12 01:58:20;;;;;;;10.50;9.70;;;15.80;43.60;;;;;;5073890;28;20414;-71
2021/06/12 02:00:46;;;;;;;10.90;9.80;;;15.80;43.60;;;;;;5073489;28;20504;-71
2021/06/12 02:03:12;;;;;;;11.30;10.23;;;15.70;43.70;;;;;;5073786;28;20419;-71
2021/06/12 02:05:39;;;;;;;19.63;9.30;;;15.70;43.90;;;;;;5073789;28;20896;-71
2021/06/12 02:08:07;;;;;;;13.63;9.17;;;15.70;43.80;;;;;;5073759;28;20423;-71
2021/06/12 02:10:33;;;;;;;11.63;10.53;;;15.70;43.80;;;;;;5073505;28;20467;-72
2021/06/12 02:12:59;;;;;;;10.63;9.50;;;15.70;43.70;;;;;;5073715;28;20419;-71
2021/06/12 02:15:28;;;;;;;9.17;8.27;;;15.70;43.90;;;;;;5073944;28;20470;-72
2021/06/12 02:17:57;;;;;;;10.73;9.57;;;15.70;44.10;;;;;;5074360;28;20532;-71
2021/06/12 02:20:24;;;;;;;10.73;9.67;;;15.70;44.20;;;;;;5073187;28;20439;-71
2021/06/12 02:22:50;;;;;;;12.77;11.47;;;15.60;44.40;;;;;;5073398;28;20416;-71
2021/06/12 02:25:17;;;;;;;11.17;10.10;;;15.60;44.60;;;;;;5073359;28;20419;-71
2021/06/12 02:27:50;;;;;;;10.93;9.43;;;15.60;44.70;;;;;;5072251;28;20454;-71
2021/06/12 02:30:18;;;;;;;9.63;8.70;;;15.60;45.00;;;;;;5063146;28;20556;-71
2021/06/12 02:32:48;;;;;;;10.90;9.90;;;15.60;44.80;;;;;;5053301;28;20424;-70
2021/06/12 02:35:13;;;;;;;10.90;9.57;;;15.60;45.00;;;;;;5053187;28;20470;-71
2021/06/12 02:37:42;;;;;;;11.37;10.37;;;15.60;45.20;;;;;;5053046;28;20917;-70
2021/06/12 02:40:08;;;;;;;10.00;9.30;;;15.50;45.40;;;;;;5052725;28;20468;-70
2021/06/12 02:42:35;;;;;;;10.27;9.37;;;15.50;45.40;;;;;;5051594;28;20430;-71
2021/06/12 02:45:02;;;;;;;12.00;11.10;;;15.50;45.90;;;;;;5051727;28;20456;-71
2021/06/12 02:47:30;;;;;;;11.30;10.20;;;15.50;45.60;;;;;;5052891;28;20442;-70
2021/06/12 02:49:57;;;;;;;10.63;9.83;;;15.40;45.70;;;;;;5051971;28;20439;-71
2021/06/12 02:52:27;;;;;;;9.67;8.97;;;15.40;46.10;;;;;;5052781;28;20909;-70
2021/06/12 02:54:55;;;;;;;8.27;7.57;;;15.40;46.10;;;;;;5052762;28;20917;-71
2021/06/12 02:57:22;;;;;;;10.73;9.87;;;15.40;46.20;;;;;;5052756;28;20429;-71
2021/06/12 02:59:50;;;;;;;9.13;7.80;;;15.40;45.90;;;;;;5052404;28;20452;-71
2021/06/12 03:02:17;;;;;;;9.23;8.43;;;15.40;45.80;;;;;;5052759;28;20458;-71
2021/06/12 03:04:44;;;;;;;10.87;9.73;;;15.40;46.10;;;;;;5052564;28;20964;-70
2021/06/12 03:07:14;;;;;;;9.80;8.80;;;15.40;45.70;;;;;;5052491;28;20841;-71
2021/06/12 03:09:43;;;;;;;10.00;9.20;;;15.40;45.70;;;;;;5052230;28;20443;-70
2021/06/12 03:12:10;;;;;;;10.20;9.30;;;15.40;45.40;;;;;;5052562;28;20423;-70
2021/06/12 03:14:39;;;;;;;9.43;8.50;;;15.30;46.00;;;;;;5052381;28;20454;-71
2021/06/12 03:17:06;;;;;;;10.23;9.20;;;15.30;46.00;;;;;;5052399;28;20460;-71
2021/06/12 03:19:32;;;;;;;11.47;10.43;;;15.30;46.00;;;;;;5052066;28;20442;-71
2021/06/12 03:22:00;;;;;;;8.70;8.00;;;15.30;46.10;;;;;;5052400;28;20769;-71
2021/06/12 03:24:28;;;;;;;9.67;8.80;;;15.30;46.00;;;;;;5052235;28;20480;-70
2021/06/12 03:26:58;;;;;;;9.37;8.57;;;15.30;46.00;;;;;;5052120;28;20409;-71
2021/06/12 03:29:24;;;;;;;10.00;9.10;;;15.20;46.30;;;;;;5051848;28;20407;-70
2021/06/12 03:31:50;;;;;;;9.77;8.97;;;15.20;46.00;;;;;;5052024;28;20425;-70
2021/06/12 03:34:16;;;;;;;9.63;8.37;;;15.10;46.50;;;;;;5052135;28;20181;-71
2021/06/12 03:36:42;;;;;;;12.13;11.03;;;15.10;46.60;;;;;;5051630;28;20216;-71
2021/06/12 03:39:08;;;;;;;10.67;9.27;;;15.10;47.00;;;;;;5052066;28;20432;-71
2021/06/12 03:41:35;;;;;;;10.60;9.73;;;15.10;47.10;;;;;;5071922;28;20778;-70
2021/06/12 03:44:01;;;;;;;10.33;9.43;;;15.10;46.90;;;;;;5071666;28;20438;-71
2021/06/12 03:46:27;;;;;;;10.20;9.30;;;15.10;46.50;;;;;;5071802;28;20414;-70
2021/06/12 03:48:54;;;;;;;8.90;8.13;;;15.10;46.20;;;;;;5071402;28;20430;-71
2021/06/12 03:51:20;;;;;;;12.33;8.83;;;15.10;45.80;;;;;;5070382;28;20541;-70
2021/06/12 03:53:47;;;;;;;9.07;8.17;;;15.10;45.90;;;;;;5053593;28;20451;-70
2021/06/12 03:56:15;;;;;;;10.53;9.53;;;15.10;45.80;;;;;;5050901;28;20494;-70
2021/06/12 03:58:43;;;;;;;8.47;7.70;;;15.10;45.80;;;;;;5051142;28;20429;-70
2021/06/12 04:01:15;;;;;;;9.63;8.73;;;15.10;45.80;;;;;;5051310;28;20451;-70
2021/06/12 04:03:42;;;;;;;8.70;7.80;;;15.10;46.70;;;;;;5051153;28;20505;-70
2021/06/12 04:06:08;;;;;;;10.20;9.30;;;15.00;46.80;;;;;;5050902;28;20483;-71
2021/06/12 04:08:33;;;;;;;10.30;8.77;;;15.00;47.30;;;;;;5051166;28;20427;-72
2021/06/12 04:10:59;;;;;;;11.10;10.00;;;15.00;47.60;;;;;;5050712;28;20436;-69
2021/06/12 04:13:26;;;;;;;11.07;10.10;;;15.10;47.40;;;;;;5051156;28;20682;-70
2021/06/12 04:15:52;;;;;;;9.77;8.97;;;15.10;47.20;;;;;;5050959;28;20210;-73
2021/06/12 04:18:17;;;;;;;10.30;9.37;;;15.10;47.10;;;;;;5050630;28;20854;-72
2021/06/12 04:20:43;;;;;;;9.90;9.10;;;15.20;46.70;;;;;;5050577;28;20483;-71
2021/06/12 04:23:08;;;;;;;11.10;10.10;;;15.30;46.00;;;;;;5050729;28;20307;-70
2021/06/12 04:25:34;;;;;;;11.03;10.03;;;15.40;46.20;;;;;;5050712;28;20189;-69
2021/06/12 04:28:00;;;;;;;10.70;9.70;;;15.50;46.20;;;;;;5049372;28;20189;-72
2021/06/12 04:30:26;;;;;;;9.10;8.30;;;15.60;45.00;;;;;;5050322;28;20455;-70
2021/06/12 04:32:51;;;;;;;10.00;9.07;;;15.80;43.00;;;;;;5050807;28;20560;-71
2021/06/12 04:35:17;;;;;;;12.23;9.63;;;16.00;41.60;;;;;;5050547;28;20209;-70
2021/06/12 04:37:43;;;;;;;11.07;9.17;;;16.20;41.00;;;;;;5050640;28;20174;-70
2021/06/12 04:40:11;;;;;;;10.03;8.80;;;16.40;40.40;;;;;;5051592;28;20202;-70
2021/06/12 04:42:37;;;;;;;14.83;8.87;;;16.50;39.40;;;;;;5070624;28;20424;-70
2021/06/12 04:45:04;;;;;;;9.17;8.37;;;16.50;38.70;;;;;;5070568;28;20823;-70
2021/06/12 04:47:30;;;;;;;7.63;7.00;;;16.60;38.50;;;;;;5070479;28;20272;-71
2021/06/12 04:49:56;;;;;;;8.63;7.73;;;16.70;38.30;;;;;;5070395;28;20523;-70
2021/06/12 04:52:21;;;;;;;8.63;7.73;;;16.70;37.90;;;;;;5070396;28;20213;-71
2021/06/12 04:54:47;;;;;;;10.85;6.80;;;16.60;38.70;;;;;;5070353;28;20555;-70
2021/06/12 04:57:12;;;;;;;7.77;7.07;;;16.50;39.30;;;;;;5070393;28;20226;-72
2021/06/12 04:59:38;;;;;;;6.77;6.10;;;16.50;39.30;;;;;;5070046;28;20217;-70
2021/06/12 05:02:03;;;;;;;9.27;8.23;;;16.50;39.50;;;;;;5070586;28;20636;-70
2021/06/12 05:04:29;;;;;;;6.50;5.80;;;16.50;39.80;;;;;;5070450;28;20563;-71
2021/06/12 05:06:55;;;;;;;8.17;7.40;;;16.60;39.90;;;;;;5070351;28;20790;-70
2021/06/12 05:09:20;;;;;;;8.33;7.10;;;16.80;39.40;;;;;;5069831;28;20439;-71
2021/06/12 05:11:46;;;;;;;8.37;6.77;;;17.00;38.50;;;;;;5071559;28;20174;-70
2021/06/12 05:14:12;;;;;;;8.10;7.50;;;17.10;38.60;;;;;;5074442;28;20253;-70
2021/06/12 05:16:39;;;;;;;8.17;7.57;;;17.10;38.20;;;;;;5074059;28;20212;-70
2021/06/12 05:19:04;;;;;;;7.80;7.20;;;17.30;38.10;;;;;;5074097;28;20479;-72
2021/06/12 05:21:36;;;;;;;9.60;6.30;;;17.50;37.60;;;;;;5074144;28;20482;-70
2021/06/12 05:24:02;;;;;;;7.50;6.80;;;17.90;36.40;;;;;;5074176;28;20182;-73
2021/06/12 05:26:28;;;;;;;5.63;5.20;;;18.20;34.20;;;;;;5074005;28;20416;-70
2021/06/12 05:28:53;;;;;;;6.73;5.90;;;18.80;33.50;;;;;;5073843;28;20420;-70
2021/06/12 05:31:19;;;;;;;7.80;7.00;;;19.80;30.40;;;;;;5074079;28;20194;-71
2021/06/12 05:33:44;;;;;;;7.30;6.60;;;21.00;28.30;;;;;;5073941;28;20170;-70
2021/06/12 05:36:10;;;;;;;5.50;5.00;;;22.40;24.40;;;;;;5073961;28;20675;-71
2021/06/12 05:38:35;;;;;;;6.20;5.60;;;23.40;22.10;;;;;;5073697;28;20261;-71
2021/06/12 05:41:01;;;;;;;6.37;5.77;;;24.20;21.50;;;;;;5056854;28;20210;-70
2021/06/12 05:43:27;;;;;;;5.63;5.23;;;24.90;19.70;;;;;;5053725;28;20171;-72
2021/06/12 05:45:53;;;;;;;6.67;5.83;;;25.60;18.50;;;;;;5053972;28;20552;-70
2021/06/12 05:48:18;;;;;;;4.93;4.53;;;26.00;17.10;;;;;;5053973;28;20266;-69
2021/06/12 05:50:44;;;;;;;6.33;5.83;;;26.40;16.80;;;;;;5053313;28;20259;-70
2021/06/12 05:53:09;;;;;;;6.10;5.63;;;26.60;15.40;;;;;;5053740;28;20179;-71
2021/06/12 05:55:35;;;;;;;5.90;5.50;;;26.50;15.90;;;;;;5052115;28;20698;-69
2021/06/12 05:58:01;;;;;;;6.03;5.57;;;26.60;15.60;;;;;;5053656;28;20671;-72
2021/06/12 06:00:27;;;;;;;6.40;6.00;;;26.90;14.90;;;;;;5053193;28;20214;-71
2021/06/12 06:02:53;;;;;;;7.00;6.40;;;27.20;14.60;;;;;;5053440;28;20177;-70
2021/06/12 06:05:18;;;;;;;7.07;6.37;;;27.10;14.30;;;;;;5053538;28;20476;-69
2021/06/12 06:07:44;;;;;;;6.83;6.40;;;26.70;13.90;;;;;;5053158;28;20225;-71
2021/06/12 06:10:10;;;;;;;7.17;6.77;;;26.50;15.60;;;;;;5051646;28;20747;-73
2021/06/12 06:12:35;;;;;;;9.27;8.67;;;26.60;15.10;;;;;;5035305;28;20269;-71
2021/06/12 06:15:02;;;;;;;9.03;8.33;;;26.90;15.30;;;;;;5053262;28;20644;-71
2021/06/12 06:17:27;;;;;;;8.17;7.67;;;27.20;14.40;;;;;;5054064;28;20167;-70
2021/06/12 06:19:53;;;;;;;8.00;7.60;;;27.10;14.20;;;;;;5053926;28;20431;-72
2021/06/12 06:22:18;;;;;;;9.20;8.60;;;26.80;14.50;;;;;;5053801;28;20798;-70
2021/06/12 06:24:44;;;;;;;9.40;8.70;;;26.70;15.00;;;;;;5052856;28;20230;-72
2021/06/12 06:27:10;;;;;;;8.90;8.20;;;26.80;14.40;;;;;;5054094;28;20206;-70
2021/06/12 06:29:35;;;;;;;10.17;9.47;;;26.90;14.10;;;;;;5053854;28;20320;-71
2021/06/12 06:32:01;;;;;;;9.40;8.80;;;27.20;13.50;;;;;;5054205;28;20667;-71
2021/06/12 06:34:26;;;;;;;9.80;9.13;;;27.50;13.60;;;;;;5054338;28;20190;-74
2021/06/12 06:36:52;;;;;;;9.87;9.27;;;27.60;13.30;;;;;;5053641;28;20679;-75
2021/06/12 06:39:18;;;;;;;9.73;9.03;;;27.80;12.90;;;;;;5053194;28;20175;-73
2021/06/12 06:41:43;;;;;;;10.43;9.73;;;28.20;13.50;;;;;;5053802;28;20666;-73
2021/06/12 06:44:09;;;;;;;10.50;9.80;;;29.00;11.20;;;;;;5053675;28;20674;-73
2021/06/12 06:46:34;;;;;;;11.20;10.40;;;29.90;11.20;;;;;;5053189;28;20650;-74
2021/06/12 06:49:00;;;;;;;10.73;10.00;;;30.70;10.60;;;;;;5052842;28;20186;-73
2021/06/12 06:51:25;;;;;;;11.57;10.67;;;31.00;10.00;;;;;;5053222;28;20195;-74
2021/06/12 06:53:51;;;;;;;10.90;10.30;;;31.30;9.20;;;;;;5052902;28;20166;-72
2021/06/12 06:56:16;;;;;;;11.13;10.60;;;31.60;8.20;;;;;;5051441;28;20573;-72
2021/06/12 06:58:42;;;;;;;12.03;11.43;;;31.60;7.70;;;;;;5053660;28;20178;-75
2021/06/12 07:01:07;;;;;;;13.17;12.57;;;32.00;8.20;;;;;;5053063;28;20206;-76
2021/06/12 07:03:33;;;;;;;12.00;11.50;;;32.60;7.20;;;;;;5053494;28;20179;-74
2021/06/12 07:05:58;;;;;;;12.00;11.50;;;33.00;6.70;;;;;;5052038;28;20174;-73
2021/06/12 07:08:24;;;;;;;13.37;12.77;;;33.20;6.00;;;;;;5054314;28;20185;-75
2021/06/12 07:10:50;;;;;;;12.53;11.93;;;33.60;5.70;;;;;;5053609;28;20273;-74
2021/06/12 07:13:23;;;;;;;13.87;13.17;;;34.10;6.50;;;;;;5053295;28;20715;-75
2021/06/12 07:15:50;;;;;;;14.03;13.47;;;34.40;4.80;;;;;;5053026;28;20206;-75
2021/06/12 07:18:15;;;;;;;14.03;13.43;;;34.80;3.80;;;;;;5052648;28;20444;-75
2021/06/12 07:20:46;;;;;;;15.20;14.30;;;35.20;3.50;;;;;;5052620;28;20471;-73
2021/06/12 07:23:12;;;;;;;14.73;14.07;;;35.50;2.80;;;;;;5051565;28;20174;-75
2021/06/12 07:25:38;;;;;;;15.47;14.67;;;35.50;3.40;;;;;;5052122;28;20413;-75
2021/06/12 07:28:03;;;;;;;16.43;15.73;;;35.80;2.70;;;;;;5066059;28;20443;-73
2021/06/12 07:30:30;;;;;;;15.13;14.43;;;36.20;2.00;;;;;;5067615;28;20738;-74
2021/06/12 07:32:56;;;;;;;17.53;16.43;;;36.30;2.30;;;;;;5068474;28;20565;-74
2021/06/12 07:35:22;;;;;;;16.23;15.40;;;35.80;1.90;;;;;;5067182;28;20475;-73
2021/06/12 07:37:47;;;;;;;15.73;15.03;;;35.30;3.00;;;;;;5067452;28;20456;-71
2021/06/12 07:40:13;;;;;;;17.00;16.00;;;34.80;4.40;;;;;;5057937;28;20199;-74
2021/06/12 07:42:39;;;;;;;15.60;14.80;;;34.90;4.00;;;;;;5047497;28;20205;-74
2021/06/12 07:45:05;;;;;;;16.73;16.03;;;35.20;4.80;;;;;;5047787;28;20189;-71
2021/06/12 07:47:31;;;;;;;17.23;16.43;;;35.50;3.90;;;;;;5048684;28;20959;-74
2021/06/12 07:49:56;;;;;;;17.80;16.80;;;35.80;3.60;;;;;;5047277;28;20437;-74
2021/06/12 07:52:22;;;;;;;17.73;16.93;;;35.80;3.60;;;;;;5047926;28;20217;-72
2021/06/12 07:54:47;;;;;;;17.60;16.80;;;35.60;4.50;;;;;;5047645;28;20206;-75
2021/06/12 07:57:13;;;;;;;17.77;16.97;;;35.60;3.90;;;;;;5046969;28;20206;-75
2021/06/12 07:59:39;;;;;;;17.43;16.73;;;35.70;4.20;;;;;;5047510;28;20286;-73
2021/06/12 08:02:04;;;;;;;16.60;15.90;;;36.10;3.70;;;;;;5047352;28;20270;-74
2021/06/12 08:04:30;;;;;;;17.37;16.60;;;36.40;3.60;;;;;;5047041;28;20533;-74
2021/06/12 08:06:55;;;;;;;16.97;16.37;;;36.30;3.10;;;;;;5047809;28;20194;-75
2021/06/12 08:09:21;;;;;;;17.80;17.10;;;36.30;3.70;;;;;;5046488;28;20694;-72
2021/06/12 08:11:46;;;;;;;18.03;17.20;;;36.20;4.00;;;;;;5046815;28;20575;-71
2021/06/12 08:14:12;;;;;;;17.90;17.20;;;36.70;3.10;;;;;;5047703;28;20269;-74
2021/06/12 08:16:38;;;;;;;17.97;17.20;;;37.10;3.20;;;;;;5051110;28;20300;-73
2021/06/12 08:19:03;;;;;;;18.57;17.77;;;37.60;2.00;;;;;;5066983;28;20178;-72
2021/06/12 08:21:29;;;;;;;18.97;18.17;;;37.70;1.30;;;;;;5067624;28;20435;-73
2021/06/12 08:23:54;;;;;;;19.13;18.33;;;38.10;1.00;;;;;;5065431;28;20655;-74
2021/06/12 08:26:20;;;;;;;19.10;18.30;;;37.50;1.00;;;;;;5067123;28;20193;-72
2021/06/12 08:28:46;;;;;;;19.63;18.80;;;36.90;2.20;;;;;;5067113;28;20182;-74
2021/06/12 08:31:13;;;;;;;20.23;19.43;;;36.60;2.50;;;;;;5066813;28;20572;-74
2021/06/12 08:33:38;;;;;;;20.03;19.20;;;36.40;2.90;;;;;;5067404;28;20424;-71
2021/06/12 08:36:04;;;;;;;20.90;20.00;;;36.30;3.00;;;;;;5067084;28;20465;-73
2021/06/12 08:38:30;;;;;;;20.80;19.70;;;36.30;2.90;;;;;;5066446;28;20193;-76
2021/06/12 08:40:56;;;;;;;19.73;18.73;;;36.70;3.00;;;;;;5059671;28;20432;-74
2021/06/12 08:43:25;;;;;;;18.57;17.87;;;37.00;2.50;;;;;;5066931;28;20178;-75
2021/06/12 08:45:51;;;;;;;20.03;19.23;;;37.40;2.00;;;;;;5066289;28;20440;-74
2021/06/12 08:48:18;;;;;;;20.13;19.23;;;37.30;2.50;;;;;;5067254;28;20416;-75
2021/06/12 08:50:45;;;;;;;19.80;19.00;;;37.40;1.60;;;;;;5066964;28;20768;-74
2021/06/12 08:53:11;;;;;;;20.90;20.00;;;37.20;2.70;;;;;;5066321;28;20473;-75
2021/06/12 08:55:37;;;;;;;20.47;19.57;;;37.10;1.50;;;;;;5066980;28;20460;-74
2021/06/12 08:58:02;;;;;;;21.73;20.80;;;37.00;1.70;;;;;;5067092;28;20939;-75
2021/06/12 09:00:28;;;;;;;21.30;20.30;;;36.50;3.10;;;;;;5065949;28;20304;-74
2021/06/12 09:03:03;;;;;;;21.77;20.70;;;36.20;3.50;;;;;;5067085;28;20184;-73
2021/06/12 09:05:42;;;;;;;22.13;21.13;;;35.70;3.40;;;;;;5070943;28;20204;-73
2021/06/12 09:08:10;;;;;;;22.47;21.13;;;35.00;4.10;;;;;;5071161;28;20416;-74
2021/06/12 09:11:01;;;;;;;20.97;20.07;;;34.30;5.50;;;;;;5049265;28;20551;-74
2021/06/12 09:13:53;;;;;;;21.10;20.20;;;34.10;6.40;;;;;;5053917;28;20913;-71
2021/06/12 09:16:21;;;;;;;20.80;19.80;;;33.90;5.50;;;;;;5069813;28;20466;-73
2021/06/12 09:18:48;;;;;;;20.67;19.87;;;33.60;6.20;;;;;;5070605;28;20401;-74
2021/06/12 09:21:28;;;;;;;22.40;21.30;;;33.30;6.00;;;;;;5070408;28;20519;-72
2021/06/12 09:23:57;;;;;;;20.50;19.70;;;33.10;7.00;;;;;;5070620;28;20400;-73
2021/06/12 09:26:38;;;;;;;21.13;20.23;;;33.10;8.00;;;;;;5071153;28;20412;-74
2021/06/12 09:29:04;;;;;;;21.50;20.50;;;33.20;6.00;;;;;;5070909;28;20412;-74
2021/06/12 09:31:29;;;;;;;22.70;21.50;;;33.00;6.20;;;;;;5071053;28;20428;-74
2021/06/12 09:33:56;;;;;;;21.97;20.63;;;32.90;5.80;;;;;;5071453;28;20178;-74
2021/06/12 09:36:35;;;;;;;21.87;20.83;;;32.70;8.20;;;;;;5070813;28;20202;-75
2021/06/12 09:39:24;;;;;;;22.57;21.47;;;32.60;7.10;;;;;;5070225;28;20771;-75
2021/06/12 09:41:54;;;;;;;20.53;19.63;;;32.30;6.70;;;;;;5049694;28;20513;-75
2021/06/12 09:44:38;;;;;;;20.77;19.87;;;31.80;6.00;;;;;;5050682;28;20416;-74
2021/06/12 09:47:22;;;;;;;20.47;19.47;;;31.70;7.20;;;;;;5050470;28;20420;-75
2021/06/12 09:49:48;;;;;;;21.13;20.03;;;31.80;8.00;;;;;;5047411;28;20433;-73
2021/06/12 09:52:16;;;;;;;21.60;20.40;;;31.90;7.00;;;;;;5046825;28;20444;-74
2021/06/12 09:54:50;;;;;;;20.70;19.83;;;31.70;8.00;;;;;;5058296;28;20421;-74
2021/06/12 09:57:23;;;;;;;21.87;20.70;;;31.70;7.90;;;;;;5057066;28;20549;-75
2021/06/12 09:59:54;;;;;;;22.23;21.13;;;32.10;6.40;;;;;;5068771;28;20448;-72
2021/06/12 10:02:39;;;;;;;20.50;19.70;;;31.90;7.60;;;;;;5082208;22;20488;-74
2021/06/12 10:05:07;;;;;;;20.13;19.23;;;31.50;7.70;;;;;;5053672;28;20420;-74
2021/06/12 10:07:33;;;;;;;20.37;19.47;;;31.10;8.60;;;;;;5053039;28;20424;-75
2021/06/12 10:10:04;;;;;;;20.53;19.17;;;30.80;9.30;;;;;;5050627;28;20484;-73
2021/06/12 10:12:30;;;;;;;19.63;18.60;;;30.90;9.40;;;;;;5052041;28;20660;-75
2021/06/12 10:14:57;;;;;;;20.30;19.30;;;31.10;10.10;;;;;;5060201;28;20452;-73
2021/06/12 10:17:24;;;;;;;20.13;19.33;;;31.30;9.10;;;;;;5055666;28;20278;-75
2021/06/12 10:19:55;;;;;;;21.10;19.80;;;31.60;8.90;;;;;;5050169;28;20429;-75
2021/06/12 10:22:22;;;;;;;19.73;18.90;;;31.70;6.80;;;;;;5067728;28;20965;-74
2021/06/12 10:24:49;;;;;;;20.40;19.50;;;31.30;8.50;;;;;;5069652;28;20431;-75
2021/06/12 10:27:15;;;;;;;19.50;18.70;;;31.30;8.20;;;;;;5069703;28;20428;-74
2021/06/12 10:29:46;;;;;;;21.00;20.00;;;31.40;7.10;;;;;;5068481;28;20456;-74
2021/06/12 10:32:16;;;;;;;20.13;19.30;;;31.60;6.40;;;;;;5071024;28;20806;-74
2021/06/12 10:34:44;;;;;;;20.07;19.17;;;31.30;6.60;;;;;;5071274;28;20427;-74
2021/06/12 10:37:11;;;;;;;19.83;19.03;;;31.30;7.40;;;;;;5054510;28;20507;-74
2021/06/12 10:39:39;;;;;;;19.83;18.93;;;31.40;7.50;;;;;;5068664;28;20560;-75
2021/06/12 10:42:17;;;;;;;20.27;19.37;;;31.40;6.70;;;;;;5069774;28;20998;-75
2021/06/12 10:44:45;;;;;;;21.10;20.20;;;31.40;5.90;;;;;;5071425;28;20416;-75
2021/06/12 10:47:11;;;;;;;20.53;19.67;;;31.30;6.50;;;;;;5073686;28;20507;-77
2021/06/12 10:49:37;;;;;;;21.27;20.37;;;31.20;6.60;;;;;;5072575;28;20507;-75
2021/06/12 10:52:04;;;;;;;21.90;20.90;;;31.10;5.70;;;;;;5072212;28;20452;-76
2021/06/12 10:54:36;;;;;;;20.87;20.00;;;31.00;6.40;;;;;;5070616;28;20416;-75
2021/06/12 10:57:03;;;;;;;21.13;20.20;;;30.60;6.10;;;;;;5070204;28;21015;-76
2021/06/12 10:59:45;;;;;;;20.50;19.50;;;30.50;6.80;;;;;;5070347;28;20416;-75
2021/06/12 11:04:42;;;;;;;21.77;20.53;;;31.00;7.80;;;;;;5072895;28;20897;-77
2021/06/12 11:07:27;;;;;;;19.90;19.10;;;31.30;5.10;;;;;;5072475;28;20427;-77
2021/06/12 11:10:11;;;;;;;20.30;19.50;;;31.40;5.10;;;;;;5072202;28;20416;-77
2021/06/12 11:12:54;;;;;;;20.40;19.47;;;31.50;6.80;;;;;;5052000;28;20949;-76
2021/06/12 11:15:23;;;;;;;19.73;18.93;;;31.30;6.60;;;;;;5053771;28;20445;-77
2021/06/12 11:18:22;;;;;;;20.53;19.63;;;31.30;5.40;;;;;;5053347;28;20412;-76
2021/06/12 11:21:01;;;;;;;21.07;19.77;;;31.30;5.90;;;;;;5051619;28;20496;-77
2021/06/12 11:24:02;;;;;;;20.13;19.33;;;31.30;5.30;;;;;;5053160;28;20436;-76
2021/06/12 11:26:47;;;;;;;20.80;19.80;;;31.00;6.60;;;;;;4994372;28;20556;-77
2021/06/12 11:29:14;;;;;;;19.83;19.03;;;31.00;5.90;;;;;;5063799;28;20428;-77
2021/06/12 11:31:40;;;;;;;20.77;19.87;;;30.90;7.50;;;;;;5053099;28;20428;-76
2021/06/12 11:34:25;;;;;;;20.57;19.67;;;30.80;5.50;;;;;;5052679;28;20420;-77
2021/06/12 11:37:18;;;;;;;20.30;19.40;;;30.40;6.20;;;;;;5058349;28;20482;-77
2021/06/12 11:39:52;;;;;;;20.40;19.60;;;30.30;5.10;;;;;;5067746;28;20417;-76
2021/06/12 11:42:18;;;;;;;20.10;19.30;;;30.30;4.50;;;;;;5052760;28;20428;-77
2021/06/12 11:44:44;;;;;;;19.57;18.77;;;30.20;6.80;;;;;;5053697;28;20901;-76
2021/06/12 11:47:09;;;;;;;20.53;19.63;;;30.20;6.50;;;;;;5059163;28;20173;-77
2021/06/12 11:49:35;;;;;;;20.07;19.27;;;30.20;6.70;;;;;;5071283;28;20178;-76
2021/06/12 11:52:00;;;;;;;20.00;19.20;;;29.90;6.50;;;;;;5072678;28;20240;-76
2021/06/12 11:54:31;;;;;;;20.27;19.47;;;29.60;7.50;;;;;;5072678;28;20220;-77
2021/06/12 11:57:01;;;;;;;19.77;18.97;;;29.50;8.70;;;;;;5072443;28;20211;-76
2021/06/12 11:59:30;;;;;;;19.63;18.83;;;29.40;7.60;;;;;;5072175;28;20915;-77
2021/06/12 12:02:00;;;;;;;19.70;18.90;;;29.60;8.80;;;;;;5070312;28;20547;-76
2021/06/12 12:04:33;;;;;;;19.27;18.57;;;30.00;8.20;;;;;;5071783;28;20423;-76
2021/06/12 12:06:59;;;;;;;19.97;19.07;;;30.40;8.80;;;;;;5071673;28;20443;-76
2021/06/12 12:09:28;;;;;;;19.93;19.13;;;30.70;5.20;;;;;;5071201;28;21139;-75
2021/06/12 12:12:08;;;;;;;19.87;19.00;;;30.70;5.70;;;;;;5071432;28;20193;-76
2021/06/12 12:14:37;;;;;;;21.27;19.37;;;30.60;5.70;;;;;;5069957;28;20424;-76
2021/06/12 12:17:04;;;;;;;21.80;20.80;;;30.60;6.30;;;;;;5071240;28;20460;-76
2021/06/12 12:19:30;;;;;;;20.23;19.43;;;30.60;4.60;;;;;;5070990;28;20492;-76
2021/06/12 12:21:58;;;;;;;20.67;19.67;;;30.50;4.60;;;;;;5069052;28;20463;-76
2021/06/12 12:24:27;;;;;;;21.10;20.30;;;30.60;4.70;;;;;;5071028;28;20412;-76
2021/06/12 12:26:55;;;;;;;21.00;20.00;;;30.50;4.60;;;;;;5071476;28;20417;-76
2021/06/12 12:29:25;;;;;;;20.10;19.30;;;30.50;5.20;;;;;;5069872;28;20428;-76
2021/06/12 12:31:51;;;;;;;20.67;19.70;;;30.40;5.60;;;;;;5071021;28;20796;-76
2021/06/12 12:34:32;;;;;;;20.37;19.57;;;30.30;5.70;;;;;;5071179;28;20416;-76
2021/06/12 12:36:58;;;;;;;20.40;19.60;;;30.30;6.20;;;;;;5070075;28;20640;-76
2021/06/12 12:39:34;;;;;;;19.83;19.13;;;30.30;4.50;;;;;;5071399;28;20925;-77
2021/06/12 12:42:00;;;;;;;19.60;18.90;;;30.40;5.60;;;;;;5071122;28;20424;-76
2021/06/12 12:44:26;;;;;;;20.13;19.23;;;30.50;5.90;;;;;;5069549;28;20420;-76
2021/06/12 12:46:53;;;;;;;20.10;19.30;;;30.50;5.20;;;;;;5070296;28;20174;-77